< < Back
Terminal Aerodrome Forecast


Current Version              Previous Versions:   1  2  3  4  5  6  7  8  9  

Terminal Aerodrome Forecast

223
FTUS42 KFFC 301100
TAFFTY
TAF
KFTY 301121Z 3012/0112 00000KT P6SM BKN015
     FM301400 00000KT P6SM SCT010
     FM301800 02003KT P6SM FEW040
     FM302200 VRB03KT P6SM FEW100
     FM011000 00000KT 5SM BR FEW250=



Latest METAR

281
SAUS70 KWBC 302300 RRK
MTRFTY
METAR KFTY 302253Z 00000KT 10SM SCT050 27/16 A2989 RMK AO2 SLP115
T02670156


USA.gov is the U.S. government's official web portal to all federal, state and local government web resources and services.